createdAt,value
2024-03-02T00:02:08.702Z,95267.63
2024-03-02T00:04:35.064Z,95262.41
2024-03-02T00:07:01.590Z,95273.09
2024-03-02T00:09:27.983Z,95274.47
2024-03-02T00:11:54.377Z,95255.34
2024-03-02T00:14:20.726Z,95255.78
2024-03-02T00:16:47.090Z,95249.13
2024-03-02T00:19:13.448Z,95254.69
2024-03-02T00:21:39.909Z,95249.25
2024-03-02T00:24:06.262Z,95251.56
2024-03-02T00:26:32.659Z,95252.56
2024-03-02T00:28:59.004Z,95249.47
2024-03-02T00:31:25.377Z,95247.00
2024-03-02T00:33:51.813Z,95243.59
2024-03-02T00:36:18.346Z,95238.03
2024-03-02T00:38:44.758Z,95234.78
2024-03-02T00:41:11.098Z,95245.13
2024-03-02T00:43:37.441Z,95239.56
2024-03-02T00:46:03.775Z,95247.56
2024-03-02T00:48:30.134Z,95246.91
2024-03-02T00:50:56.539Z,95248.59
2024-03-02T00:53:22.868Z,95249.63
2024-03-02T00:55:49.218Z,95255.03
2024-03-02T00:58:15.603Z,95247.16
2024-03-02T01:00:42.085Z,95252.59
2024-03-02T01:03:08.517Z,95254.03
2024-03-02T01:05:34.935Z,95238.13
2024-03-02T01:08:01.275Z,95234.56
2024-03-02T01:10:27.615Z,95248.03
2024-03-02T01:12:54.003Z,95250.03
2024-03-02T01:15:20.386Z,95250.81
2024-03-02T01:17:46.750Z,95255.41
2024-03-02T01:20:13.139Z,95262.75
2024-03-02T01:22:39.487Z,95256.84
2024-03-02T01:25:05.919Z,95251.41
2024-03-02T01:27:32.333Z,95257.06
2024-03-02T01:29:58.715Z,95261.53
2024-03-02T01:32:25.063Z,95250.28
2024-03-02T01:34:51.411Z,95249.84
2024-03-02T01:37:17.747Z,95251.50
2024-03-02T01:39:44.108Z,95254.75
2024-03-02T01:42:10.493Z,95249.28
2024-03-02T01:44:36.849Z,95242.47
2024-03-02T01:47:03.202Z,95231.38
2024-03-02T01:49:29.563Z,95236.38
2024-03-02T01:51:55.955Z,95238.81
2024-03-02T01:54:23.864Z,95231.72
2024-03-02T01:56:50.743Z,95239.38
2024-03-02T01:59:17.100Z,95240.63
2024-03-02T02:01:43.495Z,95243.53
2024-03-02T02:04:09.888Z,95237.50
2024-03-02T02:06:36.244Z,95241.84
2024-03-02T02:09:02.603Z,95238.41
2024-03-02T02:11:29.025Z,95253.97
2024-03-02T02:13:55.375Z,95243.75
2024-03-02T02:16:21.716Z,95246.19
2024-03-02T02:18:48.108Z,95244.53
2024-03-02T02:21:14.536Z,95231.53
2024-03-02T02:23:40.923Z,95239.84
2024-03-02T02:26:07.283Z,95233.00
2024-03-02T02:28:33.637Z,95241.69
2024-03-02T02:31:00.097Z,95233.78
2024-03-02T02:33:26.598Z,95221.34
2024-03-02T02:35:53.048Z,95223.13
2024-03-02T02:38:19.385Z,95221.03
2024-03-02T02:40:45.768Z,95221.34
2024-03-02T02:43:12.119Z,95219.34
2024-03-02T02:45:38.479Z,95210.78
2024-03-02T02:48:04.962Z,95207.59
2024-03-02T02:50:31.360Z,95192.13
2024-03-02T02:52:57.716Z,95202.34
2024-03-02T02:55:24.091Z,95202.34
2024-03-02T02:57:50.450Z,95207.91
2024-03-02T03:00:17.905Z,95194.47
2024-03-02T03:02:45.145Z,95197.25
2024-03-02T03:05:11.480Z,95189.69
2024-03-02T03:07:37.821Z,95193.56
2024-03-02T03:10:04.187Z,95187.47
2024-03-02T03:12:30.543Z,95191.25
2024-03-02T03:14:56.901Z,95195.72
2024-03-02T03:17:23.306Z,95206.94
2024-03-02T03:19:50.149Z,95206.28
2024-03-02T03:22:16.570Z,95195.59
2024-03-02T03:24:42.925Z,95199.03
2024-03-02T03:27:09.296Z,95200.59
2024-03-02T03:29:35.666Z,95199.59
2024-03-02T03:32:02.061Z,95197.03
2024-03-02T03:34:28.474Z,95193.94
2024-03-02T03:36:54.968Z,95184.38
2024-03-02T03:39:21.449Z,95186.81
2024-03-02T03:41:47.808Z,95190.16
2024-03-02T03:44:14.162Z,95189.38
2024-03-02T03:46:40.598Z,95184.94
2024-03-02T03:49:06.940Z,95192.50
2024-03-02T03:51:33.332Z,95203.69
2024-03-02T03:53:59.763Z,95207.28
2024-03-02T03:56:26.100Z,95205.94
2024-03-02T03:58:52.433Z,95191.94
2024-03-02T04:01:18.906Z,95191.94
2024-03-02T04:03:45.389Z,95195.38
2024-03-02T04:06:11.754Z,95194.34
2024-03-02T04:08:38.128Z,95208.13
2024-03-02T04:11:04.512Z,95199.25
2024-03-02T04:13:30.873Z,95206.13
2024-03-02T04:15:57.327Z,95198.66
2024-03-02T04:18:23.735Z,95196.66
2024-03-02T04:20:53.214Z,95195.91
2024-03-02T04:23:20.531Z,95200.13
2024-03-02T04:25:46.863Z,95196.25
2024-03-02T04:28:13.205Z,95201.59
2024-03-02T04:30:39.603Z,95197.28
2024-03-02T04:33:06.048Z,95211.38
2024-03-02T04:35:32.413Z,95215.94
2024-03-02T04:37:58.780Z,95209.94
2024-03-02T04:40:25.129Z,95207.16
2024-03-02T04:42:51.541Z,95203.28
2024-03-02T04:45:18.082Z,95210.59
2024-03-02T04:47:46.675Z,95199.19
2024-03-02T04:50:14.220Z,95209.28
2024-03-02T04:52:40.580Z,95218.06
2024-03-02T04:55:06.930Z,95205.41
2024-03-02T04:57:33.306Z,95207.06
2024-03-02T04:59:59.699Z,95209.50
2024-03-02T05:02:26.029Z,95209.81
2024-03-02T05:04:52.367Z,95202.41
2024-03-02T05:07:18.768Z,95199.31
2024-03-02T05:09:45.145Z,95203.19
2024-03-02T05:12:11.546Z,95208.03
2024-03-02T05:14:37.924Z,95204.16
2024-03-02T05:17:04.275Z,95203.72
2024-03-02T05:19:30.622Z,95202.94
2024-03-02T05:21:57.063Z,95196.38
2024-03-02T05:24:23.488Z,95202.72
2024-03-02T05:26:49.873Z,95210.00
2024-03-02T05:29:16.280Z,95206.44
2024-03-02T05:31:42.661Z,95200.56
2024-03-02T05:34:09.074Z,95208.81
2024-03-02T05:36:35.486Z,95205.94
2024-03-02T05:39:01.837Z,95198.84
2024-03-02T05:41:28.197Z,95195.34
2024-03-02T05:43:54.555Z,95177.88
2024-03-02T05:46:20.893Z,95190.47
2024-03-02T05:48:47.329Z,95192.38
2024-03-02T05:51:13.746Z,95194.25
2024-03-02T05:53:40.105Z,95195.03
2024-03-02T05:56:06.481Z,95197.63
2024-03-02T05:58:32.840Z,95200.91
2024-03-02T06:00:59.245Z,95188.63
2024-03-02T06:03:25.689Z,95191.81
2024-03-02T06:05:52.099Z,95201.47
2024-03-02T06:08:18.447Z,95198.00
2024-03-02T06:10:44.857Z,95202.34
2024-03-02T06:13:11.281Z,95205.00
2024-03-02T06:15:37.733Z,95209.56
2024-03-02T06:18:04.197Z,95206.66
2024-03-02T06:20:32.199Z,95213.78
2024-03-02T06:22:59.838Z,95222.25
2024-03-02T06:25:26.187Z,95214.78
2024-03-02T06:27:52.587Z,95218.31
2024-03-02T06:30:19.006Z,95217.72
2024-03-02T06:32:45.416Z,95216.50
2024-03-02T06:35:11.823Z,95212.91
2024-03-02T06:37:38.157Z,95210.94
2024-03-02T06:40:04.553Z,95207.28
2024-03-02T06:42:30.943Z,95198.50
2024-03-02T06:44:57.301Z,95206.00
2024-03-02T06:47:23.673Z,95202.88
2024-03-02T06:49:50.049Z,95209.75
2024-03-02T06:52:16.390Z,95205.97
2024-03-02T06:54:42.774Z,95206.19
2024-03-02T06:57:09.187Z,95205.59
2024-03-02T06:59:35.529Z,95202.47
2024-03-02T07:02:01.930Z,95196.09
2024-03-02T07:04:28.311Z,95199.25
2024-03-02T07:06:54.678Z,95209.34
2024-03-02T07:09:21.101Z,95209.19
2024-03-02T07:11:50.356Z,95201.81
2024-03-02T07:14:18.244Z,95206.69
2024-03-02T07:16:44.570Z,95205.13
2024-03-02T07:19:11.082Z,95206.81
2024-03-02T07:21:37.541Z,95196.84
2024-03-02T07:24:03.916Z,95192.25
2024-03-02T07:28:59.541Z,95197.66
2024-03-02T07:31:25.881Z,95201.50
2024-03-02T07:33:52.297Z,95207.47
2024-03-02T07:36:18.738Z,95206.72
2024-03-02T07:38:45.091Z,95208.75
2024-03-02T07:41:11.465Z,95199.66
2024-03-02T07:43:38.913Z,95197.94
2024-03-02T07:46:05.289Z,95198.78
2024-03-02T07:48:31.714Z,95191.06
2024-03-02T07:50:58.085Z,95195.28
2024-03-02T07:53:24.426Z,95190.38
2024-03-02T07:55:50.786Z,95191.94
2024-03-02T07:58:17.136Z,95195.88
2024-03-02T08:00:43.592Z,95195.81
2024-03-02T08:03:09.968Z,95203.63
2024-03-02T08:05:36.301Z,95205.06
2024-03-02T08:08:02.635Z,95191.88
2024-03-02T08:10:29.033Z,95201.56
2024-03-02T08:12:55.402Z,95197.41
2024-03-02T08:15:21.782Z,95192.88
2024-03-02T08:17:48.185Z,95187.91
2024-03-02T08:20:14.535Z,95193.38
2024-03-02T08:22:40.884Z,95191.72
2024-03-02T08:25:07.417Z,95195.75
2024-03-02T08:27:34.386Z,95192.56
2024-03-02T08:30:00.903Z,95203.19
2024-03-02T08:32:27.324Z,95208.19
2024-03-02T08:34:53.692Z,95189.59
2024-03-02T08:37:20.020Z,95193.13
2024-03-02T08:39:46.385Z,95196.38
2024-03-02T08:42:12.732Z,95181.84
2024-03-02T08:44:39.075Z,95187.81
2024-03-02T08:47:05.508Z,95186.56
2024-03-02T08:49:31.956Z,95177.25
2024-03-02T08:51:58.545Z,95176.84
2024-03-02T08:54:24.963Z,95166.69
2024-03-02T08:56:51.322Z,95151.28
2024-03-02T08:59:17.665Z,95139.56
2024-03-02T09:01:44.155Z,95145.47
2024-03-02T09:04:10.644Z,95155.19
2024-03-02T09:06:37.017Z,95152.59
2024-03-02T09:09:03.414Z,95152.16
2024-03-02T09:11:29.762Z,95152.22
2024-03-02T09:13:56.114Z,95138.38
2024-03-02T09:16:22.473Z,95126.78
2024-03-02T09:18:48.824Z,95121.97
2024-03-02T09:21:15.193Z,95115.28
2024-03-02T09:23:41.567Z,95100.91
2024-03-02T09:26:07.894Z,95108.91
2024-03-02T09:28:34.237Z,95096.34
2024-03-02T09:31:01.003Z,95103.97
2024-03-02T09:33:27.710Z,95081.56
2024-03-02T09:35:55.478Z,95093.66
2024-03-02T09:38:22.042Z,95089.31
2024-03-02T09:40:48.381Z,95082.28
2024-03-02T09:43:14.747Z,95077.63
2024-03-02T09:45:41.266Z,95078.25
2024-03-02T09:48:07.668Z,95064.59
2024-03-02T09:50:34.001Z,95062.34
2024-03-02T09:53:00.384Z,95058.47
2024-03-02T09:55:26.790Z,95057.47
2024-03-02T09:57:53.184Z,95048.59
2024-03-02T10:00:19.549Z,95041.63
2024-03-02T10:02:45.910Z,95043.78
2024-03-02T10:05:12.240Z,95041.47
2024-03-02T10:07:38.648Z,95033.97
2024-03-02T10:10:05.035Z,95040.78
2024-03-02T10:12:31.393Z,95062.50
2024-03-02T10:14:57.972Z,95053.78
2024-03-02T10:17:24.331Z,95035.94
2024-03-02T10:19:50.676Z,95025.72
2024-03-02T10:22:17.038Z,95032.00
2024-03-02T10:24:43.521Z,95029.47
2024-03-02T10:27:09.924Z,95004.22
2024-03-02T10:29:36.300Z,95011.31
2024-03-02T10:32:02.667Z,95009.69
2024-03-02T10:34:29.036Z,95005.84
2024-03-02T10:36:55.454Z,94999.66
2024-03-02T10:39:21.848Z,94982.44
2024-03-02T10:41:48.231Z,94974.00
2024-03-02T10:44:14.625Z,94993.72
2024-03-02T10:46:40.975Z,94974.94
2024-03-02T10:49:08.742Z,94968.25
2024-03-02T10:51:35.921Z,94962.47
2024-03-02T10:54:02.273Z,94962.28
2024-03-02T10:56:28.704Z,94971.22
2024-03-02T10:58:55.118Z,94973.69
2024-03-02T11:01:21.814Z,94974.44
2024-03-02T11:03:48.272Z,94966.53
2024-03-02T11:06:14.652Z,94969.25
2024-03-02T11:08:41.034Z,94959.50
2024-03-02T11:11:07.469Z,94942.00
2024-03-02T11:13:33.883Z,94950.75
2024-03-02T11:16:00.297Z,94955.44
2024-03-02T11:18:26.707Z,94953.06
2024-03-02T11:20:53.198Z,94948.94
2024-03-02T11:23:19.722Z,94933.22
2024-03-02T11:25:46.068Z,94958.44
2024-03-02T11:28:12.524Z,94946.31
2024-03-02T11:30:39.304Z,94958.00
2024-03-02T11:33:06.078Z,94946.59
2024-03-02T11:35:32.534Z,94927.47
2024-03-02T11:37:58.907Z,94925.84
2024-03-02T11:40:25.260Z,94937.16
2024-03-02T11:42:51.726Z,94912.91
2024-03-02T11:45:18.100Z,94905.09
2024-03-02T11:47:44.484Z,94906.53
2024-03-02T11:50:10.874Z,94899.91
2024-03-02T11:52:37.227Z,94874.69
2024-03-02T11:55:03.743Z,94880.94
2024-03-02T11:57:30.166Z,94882.16
2024-03-02T11:59:56.533Z,94881.53
2024-03-02T12:02:22.889Z,94869.31
2024-03-02T12:04:49.325Z,94869.38
2024-03-02T12:07:15.681Z,94869.81
2024-03-02T12:09:42.099Z,94880.00
2024-03-02T12:12:08.498Z,94864.56
2024-03-02T12:14:34.874Z,94870.53
2024-03-02T12:17:01.251Z,94874.31
2024-03-02T12:19:27.657Z,94878.25
2024-03-02T12:21:54.012Z,94876.91
2024-03-02T12:24:20.402Z,94866.63
2024-03-02T12:26:46.775Z,94862.50
2024-03-02T12:29:13.141Z,94866.16
2024-03-02T12:31:39.485Z,94856.91
2024-03-02T12:34:06.127Z,94855.50
2024-03-02T12:36:32.546Z,94845.97
2024-03-02T12:38:58.923Z,94848.09
2024-03-02T12:41:25.303Z,94840.03
2024-03-02T12:43:51.666Z,94835.41
2024-03-02T12:46:18.070Z,94827.63
2024-03-02T12:48:44.519Z,94814.00
2024-03-02T12:51:10.881Z,94804.38
2024-03-02T12:53:37.223Z,94793.09
2024-03-02T12:56:03.817Z,94799.56
2024-03-02T12:58:30.175Z,94783.75
2024-03-02T13:00:56.637Z,94780.47
2024-03-02T13:03:23.090Z,94778.00
2024-03-02T13:05:49.447Z,94781.13
2024-03-02T13:08:15.793Z,94792.06
2024-03-02T13:10:42.190Z,94775.69
2024-03-02T13:13:08.608Z,94781.78
2024-03-02T13:15:34.985Z,94782.97
2024-03-02T13:18:01.496Z,94760.28
2024-03-02T13:20:27.971Z,94777.13
2024-03-02T13:22:54.310Z,94772.44
2024-03-02T13:25:20.690Z,94748.72
2024-03-02T13:27:47.058Z,94741.94
2024-03-02T13:30:13.433Z,94733.28
2024-03-02T13:32:39.972Z,94729.00
2024-03-02T13:35:06.549Z,94726.41
2024-03-02T13:37:32.932Z,94717.47
2024-03-02T13:39:59.363Z,94720.31
2024-03-02T13:42:26.063Z,94716.72
2024-03-02T13:44:52.519Z,94705.25
2024-03-02T13:47:18.915Z,94698.47
2024-03-02T13:49:45.262Z,94691.72
2024-03-02T13:52:11.700Z,94689.97
2024-03-02T13:54:38.168Z,94688.63
2024-03-02T13:57:04.506Z,94697.38
2024-03-02T13:59:30.849Z,94699.03
2024-03-02T14:01:57.286Z,94696.00
2024-03-02T14:04:23.695Z,94683.59
2024-03-02T14:06:50.114Z,94696.09
2024-03-02T14:09:16.488Z,94695.63
2024-03-02T14:11:42.822Z,94689.91
2024-03-02T14:14:09.153Z,94690.16
2024-03-02T14:16:35.519Z,94681.00
2024-03-02T14:19:01.885Z,94676.97
2024-03-02T14:21:28.243Z,94672.41
2024-03-02T14:23:54.617Z,94675.97
2024-03-02T14:26:20.953Z,94669.34
2024-03-02T14:28:50.601Z,94685.69
2024-03-02T14:31:18.071Z,94680.56
2024-03-02T14:33:44.514Z,94676.53
2024-03-02T14:36:10.902Z,94664.75
2024-03-02T14:38:37.272Z,94677.50
2024-03-02T14:41:03.647Z,94679.34
2024-03-02T14:43:29.999Z,94671.63
2024-03-02T14:45:56.434Z,94682.13
2024-03-02T14:48:22.801Z,94678.34
2024-03-02T14:50:49.132Z,94675.78
2024-03-02T14:53:15.499Z,94669.97
2024-03-02T14:55:41.969Z,94670.72
2024-03-02T14:58:08.340Z,94663.81
2024-03-02T15:00:34.783Z,94671.00
2024-03-02T15:03:01.152Z,94696.50
2024-03-02T15:05:27.507Z,94683.63
2024-03-02T15:07:53.878Z,94681.13
2024-03-02T15:10:20.226Z,94686.00
2024-03-02T15:12:46.594Z,94688.03
2024-03-02T15:15:13.007Z,94687.31
2024-03-02T15:17:39.418Z,94674.28
2024-03-02T15:20:05.804Z,94676.34
2024-03-02T15:22:32.206Z,94672.28
2024-03-02T15:24:58.584Z,94653.66
2024-03-02T15:27:25.076Z,94656.47
2024-03-02T15:29:51.527Z,94653.66
2024-03-02T15:32:18.049Z,94652.03
2024-03-02T15:34:44.573Z,94647.97
2024-03-02T15:37:11.097Z,94655.41
2024-03-02T15:39:37.511Z,94652.84
2024-03-02T15:42:03.948Z,94641.34
2024-03-02T15:44:30.321Z,94639.28
2024-03-02T15:46:56.674Z,94632.94
2024-03-02T15:49:23.135Z,94626.81
2024-03-02T15:51:49.583Z,94624.31
2024-03-02T15:54:15.939Z,94626.31
2024-03-02T15:56:42.302Z,94619.47
2024-03-02T15:59:08.709Z,94623.28
2024-03-02T16:01:35.121Z,94613.09
2024-03-02T16:04:01.590Z,94604.66
2024-03-02T16:06:28.045Z,94598.00
2024-03-02T16:08:54.414Z,94595.94
2024-03-02T16:11:20.812Z,94597.72
2024-03-02T16:13:47.234Z,94589.56
2024-03-02T16:16:13.626Z,94583.94
2024-03-02T16:18:40.060Z,94570.69
2024-03-02T16:21:06.498Z,94567.59
2024-03-02T16:23:32.855Z,94558.81
2024-03-02T16:25:59.190Z,94564.47
2024-03-02T16:28:25.559Z,94550.38
2024-03-02T16:30:51.933Z,94561.63
2024-03-02T16:33:18.298Z,94553.81
2024-03-02T16:35:44.652Z,94552.38
2024-03-02T16:38:10.998Z,94555.72
2024-03-02T16:40:37.361Z,94548.84
2024-03-02T16:43:03.778Z,94541.38
2024-03-02T16:45:30.149Z,94544.19
2024-03-02T16:47:56.695Z,94551.56
2024-03-02T16:50:23.072Z,94548.81
2024-03-02T16:52:49.423Z,94551.09
2024-03-02T16:55:16.031Z,94558.75
2024-03-02T16:57:42.549Z,94549.31
2024-03-02T17:00:08.967Z,94546.22
2024-03-02T17:02:35.356Z,94568.66
2024-03-02T17:05:01.756Z,94568.66
2024-03-02T17:07:28.108Z,94563.03
2024-03-02T17:09:54.561Z,94553.09
2024-03-02T17:12:20.977Z,94554.13
2024-03-02T17:14:47.325Z,94571.44
2024-03-02T17:17:13.675Z,94581.63
2024-03-02T17:19:40.040Z,94588.25
2024-03-02T17:22:06.551Z,94593.84
2024-03-02T17:24:33.015Z,94593.31
2024-03-02T17:26:59.501Z,94596.38
2024-03-02T17:29:28.708Z,94597.38
2024-03-02T17:31:55.053Z,94592.28
2024-03-02T17:34:21.464Z,94583.59
2024-03-02T17:36:47.909Z,94590.63
2024-03-02T17:39:14.259Z,94599.03
2024-03-02T17:41:40.624Z,94599.56
2024-03-02T17:44:07.354Z,94604.44
2024-03-02T17:46:33.724Z,94613.63
2024-03-02T17:49:00.222Z,94618.22
2024-03-02T17:51:26.633Z,94624.59
2024-03-02T17:53:53.052Z,94624.34
2024-03-02T17:56:19.444Z,94629.38
2024-03-02T17:58:45.793Z,94634.94
2024-03-02T18:01:12.163Z,94631.09
2024-03-02T18:03:38.579Z,94631.88
2024-03-02T18:06:04.935Z,94631.09
2024-03-02T18:08:31.325Z,94632.63
2024-03-02T18:10:57.765Z,94640.00
2024-03-02T18:13:24.117Z,94632.38
2024-03-02T18:15:51.701Z,94634.41
2024-03-02T18:18:18.345Z,94633.91
2024-03-02T18:20:44.751Z,94636.97
2024-03-02T18:23:11.146Z,94637.97
2024-03-02T18:25:37.529Z,94642.56
2024-03-02T18:28:03.964Z,94647.09
2024-03-02T18:30:30.376Z,94647.53
2024-03-02T18:32:56.814Z,94648.25
2024-03-02T18:35:23.225Z,94630.41
2024-03-02T18:37:49.599Z,94624.53
2024-03-02T18:40:16.143Z,94629.88
2024-03-02T18:42:42.602Z,94620.84
2024-03-02T18:45:08.996Z,94606.09
2024-03-02T18:47:35.588Z,94615.50
2024-03-02T18:50:02.050Z,94613.91
2024-03-02T18:52:28.425Z,94622.56
2024-03-02T18:54:54.907Z,94631.53
2024-03-02T18:57:21.400Z,94635.16
2024-03-02T18:59:47.758Z,94637.44
2024-03-02T19:02:14.281Z,94633.06
2024-03-02T19:04:40.667Z,94645.47
2024-03-02T19:07:07.116Z,94638.59
2024-03-02T19:09:33.591Z,94648.75
2024-03-02T19:11:59.970Z,94640.03
2024-03-02T19:14:26.333Z,94643.31
2024-03-02T19:16:52.698Z,94638.72
2024-03-02T19:19:19.076Z,94637.09
2024-03-02T19:21:46.148Z,94640.13
2024-03-02T19:24:15.521Z,94626.41
2024-03-02T19:26:41.866Z,94620.25
2024-03-02T19:29:08.213Z,94612.34
2024-03-02T19:31:34.634Z,94612.84
2024-03-02T19:34:01.032Z,94620.69
2024-03-02T19:36:27.392Z,94619.31
2024-03-02T19:38:53.758Z,94620.78
2024-03-02T19:41:20.110Z,94626.03
2024-03-02T19:43:46.463Z,94629.75
2024-03-02T19:46:12.972Z,94631.09
2024-03-02T19:48:39.461Z,94621.72
2024-03-02T19:51:05.881Z,94622.97
2024-03-02T19:53:32.247Z,94613.06
2024-03-02T19:55:58.619Z,94616.81
2024-03-02T19:58:25.005Z,94621.38
2024-03-02T20:00:51.458Z,94618.31
2024-03-02T20:03:17.814Z,94624.41
2024-03-02T20:05:44.228Z,94627.47
2024-03-02T20:08:10.591Z,94602.81
2024-03-02T20:10:36.931Z,94595.44
2024-03-02T20:13:03.347Z,94595.16
2024-03-02T20:15:29.770Z,94596.69
2024-03-02T20:17:56.193Z,94608.38
2024-03-02T20:20:22.574Z,94617.25
2024-03-02T20:22:48.950Z,94624.09
2024-03-02T20:25:15.468Z,94620.25
2024-03-02T20:27:41.871Z,94624.81
2024-03-02T20:30:08.244Z,94623.97
2024-03-02T20:32:34.706Z,94623.41
2024-03-02T20:35:01.098Z,94623.91
2024-03-02T20:37:27.485Z,94617.53
2024-03-02T20:39:54.001Z,94616.28
2024-03-02T20:42:20.447Z,94613.97
2024-03-02T20:44:46.877Z,94618.00
2024-03-02T20:47:13.227Z,94612.59
2024-03-02T20:49:39.651Z,94605.47
2024-03-02T20:52:06.155Z,94600.88
2024-03-02T20:54:32.632Z,94593.72
2024-03-02T20:56:59.002Z,94595.28
2024-03-02T20:59:25.386Z,94591.94
2024-03-02T21:01:51.769Z,94590.16
2024-03-02T21:04:18.179Z,94591.94
2024-03-02T21:06:44.612Z,94594.72
2024-03-02T21:09:10.976Z,94594.53
2024-03-02T21:11:37.454Z,94600.47
2024-03-02T21:14:03.876Z,94616.66
2024-03-02T21:16:30.216Z,94600.38
2024-03-02T21:18:56.653Z,94599.31
2024-03-02T21:21:23.292Z,94607.72
2024-03-02T21:23:49.631Z,94605.72
2024-03-02T21:26:15.963Z,94593.72
2024-03-02T21:28:42.316Z,94606.47
2024-03-02T21:31:08.715Z,94609.38
2024-03-02T21:33:35.121Z,94597.25
2024-03-02T21:36:01.509Z,94595.22
2024-03-02T21:38:27.856Z,94600.31
2024-03-02T21:40:54.209Z,94590.13
2024-03-02T21:43:20.601Z,94580.19
2024-03-02T21:45:46.974Z,94571.38
2024-03-02T21:48:13.346Z,94585.84
2024-03-02T21:50:39.745Z,94578.22
2024-03-02T21:53:06.076Z,94583.75
2024-03-02T21:55:32.420Z,94575.84
2024-03-02T21:57:58.856Z,94573.88
2024-03-02T22:00:25.250Z,94582.50
2024-03-02T22:02:51.638Z,94585.00
2024-03-02T22:05:18.005Z,94587.31
2024-03-02T22:07:44.382Z,94588.84
2024-03-02T22:10:10.789Z,94586.75
2024-03-02T22:12:37.258Z,94589.53
2024-03-02T22:15:03.665Z,94580.19
2024-03-02T22:17:30.146Z,94584.22
2024-03-02T22:19:56.561Z,94576.63
2024-03-02T22:22:22.958Z,94571.09
2024-03-02T22:24:49.493Z,94570.06
2024-03-02T22:27:15.933Z,94571.59
2024-03-02T22:29:42.288Z,94575.84
2024-03-02T22:32:08.627Z,94583.00
2024-03-02T22:34:34.992Z,94577.94
2024-03-02T22:37:01.368Z,94569.28
2024-03-02T22:39:27.730Z,94577.41
2024-03-02T22:41:54.094Z,94576.56
2024-03-02T22:44:20.439Z,94575.03
2024-03-02T22:46:46.783Z,94576.75
2024-03-02T22:49:13.219Z,94573.19
2024-03-02T22:51:39.592Z,94568.59
2024-03-02T22:54:05.932Z,94571.38
2024-03-02T22:56:32.342Z,94565.81
2024-03-02T22:58:58.856Z,94569.13
2024-03-02T23:01:25.299Z,94568.88
2024-03-02T23:03:51.799Z,94556.84
2024-03-02T23:06:18.177Z,94561.47
2024-03-02T23:08:44.526Z,94575.06
2024-03-02T23:11:10.951Z,94575.84
2024-03-02T23:13:37.330Z,94558.66
2024-03-02T23:16:03.705Z,94555.56
2024-03-02T23:18:30.085Z,94560.19
2024-03-02T23:20:56.441Z,94571.78
2024-03-02T23:23:22.782Z,94575.34
2024-03-02T23:25:49.173Z,94558.22
2024-03-02T23:28:15.591Z,94570.44
2024-03-02T23:30:42.000Z,94566.59
2024-03-02T23:33:08.388Z,94570.47
2024-03-02T23:35:34.821Z,94555.25
2024-03-02T23:38:01.173Z,94545.72
2024-03-02T23:40:27.544Z,94550.59
2024-03-02T23:42:53.898Z,94552.06
2024-03-02T23:45:20.262Z,94547.38
2024-03-02T23:47:46.685Z,94549.47
2024-03-02T23:50:13.018Z,94547.94
2024-03-02T23:52:39.364Z,94543.31
2024-03-02T23:55:08.876Z,94544.66
2024-03-02T23:57:35.758Z,94534.19
